Погода Краенкана 2 недели

Великопольское воеводство, Польша

15 - 28 июля
  • 15июля
    Сегодня
    +17°
    +28°
    Практически безоблачно
    ВремяПогодаТемператураВлажностьДавлениеВетер, м/сВероятность осадков
    02:00Облачно с прояснениями+16°C97 %753 мм0.8 м/с2 %
    05:00Ясно и безоблачно+15°C100 %753 мм0.4 м/с2 %
    08:00Ясно и безоблачно+19°C87 %754 мм1.4 м/с2 %
    11:00Ясно и безоблачно+24°C52 %753 мм2.2 м/с2 %
    14:00Практически безоблачно+26°C43 %753 мм3.1 м/с2 %
    17:00Облачно с прояснениями+27°C42 %752 мм2.7 м/с7 %
    20:00Облачно с прояснениями+25°C61 %752 мм1.9 м/с3 %
    23:00Ясно и безоблачно+20°C67 %752 мм1.3 м/с2 %
  • 16июля
    Вторник
    +15°
    +28°
    Пасмурно, дождь
    ВремяПогодаТемператураВлажностьДавлениеВетер, м/сВероятность осадков
    02:00Практически безоблачно+19°C71 %752 мм1.3 м/с2 %
    05:00Практически безоблачно+18°C74 %751 мм1.2 м/с2 %
    08:00Практически безоблачно+22°C74 %751 мм2.3 м/с2 %
    11:00Практически безоблачно+27°C65 %750 мм2.7 м/с6 %
    14:00Пасмурно, дождь+25°C82 %750 мм2.7 м/с57 %
    17:00Пасмурно, дожди с грозами+22°C85 %750 мм2.5 м/с80 %
    20:00Облачно с прояснениями+23°C87 %750 мм1.7 м/с50 %
    23:00Ясно и безоблачно+20°C92 %751 мм1.1 м/с17 %
  • 17июля
    Среда
    +13°
    +24°
    Пасмурно, сплошная облачность
    ВремяПогодаТемператураВлажностьДавлениеВетер, м/сВероятность осадков
    02:00Ясно и безоблачно+17°C94 %752 мм1.0 м/с2 %
    05:00Ясно и безоблачно+16°C91 %753 мм0.9 м/с2 %
    08:00Ясно и безоблачно+19°C73 %754 мм2.3 м/с2 %
    11:00Ясно и безоблачно+23°C57 %755 мм3.4 м/с2 %
    14:00Пасмурно, сплошная облачность+24°C45 %755 мм4.2 м/с9 %
    17:00Облачно с прояснениями+24°C51 %756 мм3.7 м/с11 %
    20:00Ясно и безоблачно+22°C61 %756 мм2.1 м/с2 %
    23:00Ясно и безоблачно+17°C84 %757 мм1.0 м/с2 %
  • 18июля
    Четверг
    +14°
    +25°
    Облачно с прояснениями
    ВремяПогодаТемператураВлажностьДавлениеВетер, м/сВероятность осадков
    02:00Ясно и безоблачно+15°C90 %757 мм1.1 м/с2 %
    05:00Ясно и безоблачно+13°C96 %758 мм0.7 м/с2 %
    08:00Ясно и безоблачно+18°C78 %758 мм1.8 м/с2 %
    11:00Небольшая облачность+22°C58 %759 мм2.7 м/с5 %
    14:00Облачно с прояснениями+24°C52 %758 мм3.1 м/с11 %
    17:00Небольшая облачность+25°C53 %758 мм2.8 м/с7 %
    20:00Облачно с прояснениями+23°C68 %758 мм1.9 м/с2 %
    23:00Практически безоблачно+17°C87 %759 мм1.2 м/с2 %
  • 19июля
    Пятница
    +13°
    +26°
    Практически безоблачно
    ВремяПогодаТемператураВлажностьДавлениеВетер, м/сВероятность осадков
    02:00Ясно и безоблачно+15°C95 %758 мм0.9 м/с2 %
    05:00Ясно и безоблачно+15°C96 %758 мм0.6 м/с2 %
    08:00Практически безоблачно+18°C73 %759 мм1.4 м/с2 %
    11:00Ясно и безоблачно+23°C54 %759 мм2.3 м/с12 %
    14:00Практически безоблачно+25°C46 %758 мм3.0 м/с22 %
    17:00Ясно и безоблачно+25°C47 %757 мм2.5 м/с19 %
    20:00Ясно и безоблачно+24°C66 %756 мм1.9 м/с6 %
    23:00Ясно и безоблачно+17°C79 %756 мм1.1 м/с2 %
Мы используем cookies
Соглашаюсь